S/y Tatsu — MKEM9 — position and weather

sailwx.info

Track history (hours):
 
Tides and Currents Weather Stations Pressure Air Temp Water Temp Dewpoint Dewpoint Depression Visibility Wind Speed Wind Dir Waves Ship Positions

S/y Tatsu

Last reported at 2017-May-20 16:53 UTC. Time now 2017-May-29 03:44 UTC.
Position N 47°50' W 004°09'.
Warning: this ship's position is 8 days out of date.

Length 11 m.

Type: Sailing vessel. MMSI: 235071049.

Date/timePositionNaut miles runAvg speedWind from/ knotsBaromVisibWave heightAir tempDewpointWater temp
2017-May-20 16:53N 47°50' W 004°09'8 3.5
2017-May-20 14:33N 47°45' W 004°19'10 5.5
2017-May-20 12:43N 47°52' W 004°31'9 6.3
2017-May-20 11:16N 47°58' W 004°40'2 6.0
2017-May-20 10:59N 47°60' W 004°42'3 5.9
2017-May-20 10:30N 48°01' W 004°45'2 5.0
2017-May-20 10:00N 48°04' W 004°45'2 4.3
2017-May-20 09:30N 48°06' W 004°44'2 4.3
2017-May-20 09:00N 48°08' W 004°43'2 5.0
2017-May-20 08:30N 48°10' W 004°41'2 4.8
2017-May-20 08:00N 48°12' W 004°40'3 5.5
2017-May-20 07:30N 48°15' W 004°39'2 4.7
2017-May-20 07:00N 48°17' W 004°37'1 2.5
2017-May-20 06:29N 48°17' W 004°35'0 0.0
2017-May-18 14:43N 48°17' W 004°35'0 0.0
2017-May-18 14:28N 48°17' W 004°35'1 1.4
2017-May-18 13:30N 48°18' W 004°37'3 5.3
2017-May-18 13:00N 48°18' W 004°41'3 5.2
2017-May-18 12:30N 48°19' W 004°45'3 5.6
2017-May-18 11:59N 48°21' W 004°48'4 7.5
2017-May-18 11:25N 48°25' W 004°50'3 6.6
2017-May-18 11:00N 48°28' W 004°50'3 6.7
2017-May-18 10:30N 48°31' W 004°49'3 6.0
2017-May-18 10:00N 48°34' W 004°48'3 5.8
2017-May-18 09:30N 48°36' W 004°45'  
2017-May-13 13:23N 48°37' W 004°36'  
Track history (hours):
 
Tides and Currents Weather Stations Pressure Air Temp Water Temp Dewpoint Dewpoint Depression Visibility Wind Speed Wind Dir Waves Ship Positions

S/y Tatsu

Last reported at 2017-May-20 16:53 UTC. Time now 2017-May-29 03:44 UTC.
Position N 47°50' W 004°09'.
Warning: this ship's position is 8 days out of date.

Length 11 m.

Type: Sailing vessel. MMSI: 235071049.

Date/timePositionNaut miles runAvg speedWind from/ knotsBaromVisibWave heightAir tempDewpointWater temp
2017-May-20 16:53N 47°50' W 004°09'8 3.5
2017-May-20 14:33N 47°45' W 004°19'10 5.5
2017-May-20 12:43N 47°52' W 004°31'9 6.3
2017-May-20 11:16N 47°58' W 004°40'2 6.0
2017-May-20 10:59N 47°60' W 004°42'3 5.9
2017-May-20 10:30N 48°01' W 004°45'2 5.0
2017-May-20 10:00N 48°04' W 004°45'2 4.3
2017-May-20 09:30N 48°06' W 004°44'2 4.3
2017-May-20 09:00N 48°08' W 004°43'2 5.0
2017-May-20 08:30N 48°10' W 004°41'2 4.8
2017-May-20 08:00N 48°12' W 004°40'3 5.5
2017-May-20 07:30N 48°15' W 004°39'2 4.7
2017-May-20 07:00N 48°17' W 004°37'1 2.5
2017-May-20 06:29N 48°17' W 004°35'0 0.0
2017-May-18 14:43N 48°17' W 004°35'0 0.0
2017-May-18 14:28N 48°17' W 004°35'1 1.4
2017-May-18 13:30N 48°18' W 004°37'3 5.3
2017-May-18 13:00N 48°18' W 004°41'3 5.2
2017-May-18 12:30N 48°19' W 004°45'3 5.6
2017-May-18 11:59N 48°21' W 004°48'4 7.5
2017-May-18 11:25N 48°25' W 004°50'3 6.6
2017-May-18 11:00N 48°28' W 004°50'3 6.7
2017-May-18 10:30N 48°31' W 004°49'3 6.0
2017-May-18 10:00N 48°34' W 004°48'3 5.8
2017-May-18 09:30N 48°36' W 004°45'  
2017-May-13 13:23N 48°37' W 004°36'  

Dump ship's entire track history